aviador You're here:

KWRI Decoded Metar

WRIGHTSTOWN in NJ, USA
Report Time2018-05-28 07:56:00
UTC Time2018-05-28 08:05:14
Flight Rules ifr IFR
Wind070° at 05 kt
W.Decomp.*RWY 06: 4.6 kt HW 1.9 kt RCW
RWY 36: 0.7 kt HW 5.0 kt RCW
W.Rank070° ranks 26
Current wind is below 070° avg. (6.5)
Visibility9999 m
Phenomena:N/A
Clouds:Overcast 006 Hf
Expected CloudBase > 400 ft AGL from Temp-Dew spread
Ceiling600 ft
Temp13°C (ISA -2)
Dew Point12°C (94% RH)
AAT11.8°C
QNH1017 hPa
Density Alt-20 ft
Elevation135 ft
Report Wrong Elevation
Raw Report
METAR KWRI 280756Z AUTO 07005KT 10SM OVC006 13/12 A3003 RMK AO2 SLP169
T01290121=

Extra information for KWRI:More info

Metar Taf Metar & Taf Last 4 Metars F.Rules Stats Wind Profile Meteogram Temp Stats Airport Information Weather charts Add Link Nearby VenuesMetar ALERT Operation Metar Decoded Social comments

AIRNAV info for KWRI